Time;durP1;ratioP1;P1;durP2;ratioP2;P2;SDS_P1;SDS_P2;PMS_P1;PMS_P2;Temp;Humidity;BMP_temperature;BMP_pressure;BME280_temperature;BME280_humidity;BME280_pressure;Samples;Min_cycle;Max_cycle;Signal;HPM_P1;HPM_P2
2020/12/30 00:02:15;;;;;;;12.33;8.23;;;3.70;99.90;;;;;;5033551;28;20547;-63
2020/12/30 00:04:40;;;;;;;13.03;7.77;;;3.70;99.90;;;;;;5051141;28;20199;-65
2020/12/30 00:07:06;;;;;;;10.23;7.77;;;3.70;99.90;;;;;;5051608;28;20179;-64
2020/12/30 00:09:31;;;;;;;9.73;8.00;;;3.70;99.90;;;;;;5051591;28;20206;-63
2020/12/30 00:11:57;;;;;;;11.43;8.33;;;3.80;99.90;;;;;;5051300;28;20773;-63
2020/12/30 00:14:23;;;;;;;15.20;9.73;;;3.80;99.90;;;;;;5051440;28;20273;-61
2020/12/30 00:16:48;;;;;;;15.33;10.10;;;3.80;99.90;;;;;;5051199;28;20205;-63
2020/12/30 00:19:14;;;;;;;15.30;10.10;;;3.80;99.90;;;;;;5051341;28;20171;-62
2020/12/30 00:21:39;;;;;;;15.30;10.33;;;3.90;99.90;;;;;;5051235;28;20167;-64
2020/12/30 00:24:05;;;;;;;12.70;9.73;;;3.90;99.90;;;;;;5051241;28;20680;-64
2020/12/30 00:26:30;;;;;;;16.03;9.73;;;3.90;99.90;;;;;;5051426;28;20183;-64
2020/12/30 00:28:56;;;;;;;11.27;9.60;;;4.00;99.90;;;;;;5051293;28;20190;-63
2020/12/30 00:31:21;;;;;;;13.23;9.60;;;4.00;99.90;;;;;;5050746;28;20236;-64
2020/12/30 00:33:47;;;;;;;13.20;9.77;;;4.00;99.90;;;;;;5051206;28;20193;-62
2020/12/30 00:36:13;;;;;;;14.10;9.60;;;4.10;99.90;;;;;;5051110;28;20182;-65
2020/12/30 00:38:41;;;;;;;15.60;11.23;;;4.10;99.90;;;;;;5050868;28;20207;-63
2020/12/30 00:41:12;;;;;;;18.83;11.97;;;4.10;99.90;;;;;;5050709;28;20171;-65
2020/12/30 00:43:38;;;;;;;19.40;13.13;;;4.20;99.90;;;;;;5038613;28;20556;-64
2020/12/30 00:46:04;;;;;;;15.63;11.97;;;4.20;99.90;;;;;;5050921;28;20265;-63
2020/12/30 00:48:30;;;;;;;15.13;11.80;;;4.20;99.90;;;;;;5051071;28;20270;-64
2020/12/30 00:50:55;;;;;;;16.10;11.67;;;4.10;99.90;;;;;;5050429;28;20183;-64
2020/12/30 00:53:21;;;;;;;19.10;13.60;;;4.10;99.90;;;;;;5051287;28;20690;-64
2020/12/30 00:55:46;;;;;;;17.03;12.67;;;4.00;99.90;;;;;;5050825;28;20179;-64
2020/12/30 00:58:12;;;;;;;16.17;10.67;;;4.10;99.90;;;;;;5050973;28;20183;-64
2020/12/30 01:00:39;;;;;;;14.57;10.33;;;4.10;99.90;;;;;;5050179;28;20174;-65
2020/12/30 01:03:04;;;;;;;14.03;9.47;;;4.00;99.90;;;;;;5051038;28;20305;-63
2020/12/30 01:05:30;;;;;;;13.53;9.23;;;3.90;99.90;;;;;;5050656;28;20213;-65
2020/12/30 01:07:55;;;;;;;13.67;9.37;;;3.80;99.90;;;;;;5050901;28;20581;-65
2020/12/30 01:10:21;;;;;;;14.67;10.13;;;3.70;99.90;;;;;;5050604;28;20181;-65
2020/12/30 01:12:47;;;;;;;16.33;11.47;;;3.80;99.90;;;;;;5050550;28;20636;-64
2020/12/30 01:15:12;;;;;;;16.40;10.63;;;3.70;99.90;;;;;;5050784;28;20277;-64
2020/12/30 01:17:38;;;;;;;13.60;10.73;;;3.70;99.90;;;;;;5050913;28;20167;-65
2020/12/30 01:20:04;;;;;;;16.90;11.57;;;3.70;99.90;;;;;;5050411;28;20674;-65
2020/12/30 01:22:29;;;;;;;17.93;11.93;;;3.70;99.90;;;;;;5050670;28;20266;-64
2020/12/30 01:24:55;;;;;;;19.77;12.80;;;3.70;99.90;;;;;;5050507;28;20305;-64
2020/12/30 01:27:20;;;;;;;15.53;11.97;;;3.70;99.90;;;;;;5050904;28;20170;-64
2020/12/30 01:29:46;;;;;;;16.50;11.70;;;3.60;99.90;;;;;;5050669;28;20726;-64
2020/12/30 01:32:11;;;;;;;19.03;13.40;;;3.60;99.90;;;;;;5050123;28;20206;-63
2020/12/30 01:34:37;;;;;;;16.03;12.23;;;3.60;99.90;;;;;;5050585;28;20186;-65
2020/12/30 01:37:03;;;;;;;22.60;15.03;;;3.60;99.90;;;;;;5050397;28;20178;-64
2020/12/30 01:39:28;;;;;;;19.13;13.43;;;3.60;99.90;;;;;;5050226;28;20182;-64
2020/12/30 01:41:58;;;;;;;17.50;12.50;;;3.60;99.90;;;;;;5050128;28;20297;-64
2020/12/30 01:44:24;;;;;;;18.57;13.20;;;3.70;99.90;;;;;;5050570;28;20210;-65
2020/12/30 01:46:51;;;;;;;17.50;13.23;;;3.80;99.90;;;;;;5050314;28;20186;-63
2020/12/30 01:49:21;;;;;;;17.47;12.83;;;3.80;99.90;;;;;;5050707;28;20663;-65
2020/12/30 01:51:50;;;;;;;16.40;12.10;;;3.80;99.90;;;;;;5050305;28;20542;-64
2020/12/30 01:54:17;;;;;;;13.67;10.40;;;3.80;99.90;;;;;;5054259;28;20569;-64
2020/12/30 01:56:43;;;;;;;14.97;10.53;;;3.80;99.90;;;;;;5053757;28;20170;-64
2020/12/30 01:59:16;;;;;;;14.77;11.20;;;3.80;99.90;;;;;;5054065;28;20190;-64
2020/12/30 02:01:44;;;;;;;14.83;10.00;;;3.80;99.90;;;;;;5053332;28;20271;-63
2020/12/30 02:04:11;;;;;;;13.20;9.00;;;3.80;99.90;;;;;;5053737;28;20574;-64
2020/12/30 02:06:37;;;;;;;11.13;8.60;;;3.80;99.90;;;;;;5053985;28;20163;-64
2020/12/30 02:09:05;;;;;;;10.27;8.50;;;3.80;99.90;;;;;;5053588;28;20190;-65
2020/12/30 02:11:31;;;;;;;12.63;8.60;;;3.70;99.90;;;;;;5053354;28;20170;-64
2020/12/30 02:14:12;;;;;;;10.87;8.10;;;3.70;99.90;;;;;;5053406;28;20672;-64
2020/12/30 02:16:52;;;;;;;11.30;7.37;;;3.60;99.90;;;;;;5053174;28;20178;-65
2020/12/30 02:19:18;;;;;;;11.93;7.10;;;3.50;99.90;;;;;;5053877;28;20182;-64
2020/12/30 02:21:44;;;;;;;11.03;7.63;;;3.50;99.90;;;;;;5053129;28;20183;-65
2020/12/30 02:24:14;;;;;;;12.23;7.53;;;3.50;99.90;;;;;;5053576;28;20201;-64
2020/12/30 02:26:40;;;;;;;10.73;7.47;;;3.40;99.90;;;;;;5053054;28;20175;-64
2020/12/30 02:29:06;;;;;;;10.27;7.60;;;3.40;99.90;;;;;;5053389;28;20209;-64
2020/12/30 02:31:32;;;;;;;10.33;7.43;;;3.30;99.90;;;;;;5053160;28;20178;-64
2020/12/30 02:33:57;;;;;;;12.37;7.57;;;3.30;99.90;;;;;;5053535;28;20218;-63
2020/12/30 02:36:23;;;;;;;10.23;6.93;;;3.30;99.90;;;;;;5053360;28;20702;-65
2020/12/30 02:38:53;;;;;;;13.07;7.50;;;3.30;99.90;;;;;;5052787;28;20167;-64
2020/12/30 02:41:19;;;;;;;13.97;7.77;;;3.30;99.90;;;;;;5052939;28;20175;-64
2020/12/30 02:43:48;;;;;;;12.40;8.20;;;3.30;99.90;;;;;;5053016;28;20202;-65
2020/12/30 02:46:14;;;;;;;13.83;8.37;;;3.30;99.90;;;;;;5053007;28;20656;-65
2020/12/30 02:48:39;;;;;;;11.10;7.83;;;3.20;99.90;;;;;;5052936;28;20198;-65
2020/12/30 02:51:05;;;;;;;13.07;8.27;;;3.20;99.90;;;;;;5053510;28;20170;-66
2020/12/30 02:53:31;;;;;;;14.20;8.07;;;3.20;99.90;;;;;;5054567;28;20191;-66
2020/12/30 02:55:57;;;;;;;11.43;8.03;;;3.20;99.90;;;;;;5054205;28;20186;-66
2020/12/30 02:58:22;;;;;;;13.80;7.87;;;3.20;99.90;;;;;;5054092;28;20191;-65
2020/12/30 03:00:48;;;;;;;12.37;8.17;;;3.10;99.90;;;;;;5053816;28;20253;-66
2020/12/30 03:03:13;;;;;;;13.93;8.27;;;3.20;99.90;;;;;;5054363;28;20260;-66
2020/12/30 03:05:39;;;;;;;11.70;8.40;;;3.20;99.90;;;;;;5054247;28;20301;-66
2020/12/30 03:08:05;;;;;;;15.37;9.20;;;3.20;99.90;;;;;;5055447;28;20786;-64
2020/12/30 03:10:30;;;;;;;14.27;9.17;;;3.30;99.90;;;;;;5056141;28;20163;-65
2020/12/30 03:12:56;;;;;;;15.03;8.53;;;3.30;99.90;;;;;;5055484;28;20206;-65
2020/12/30 03:15:21;;;;;;;17.20;8.67;;;3.30;99.90;;;;;;5053485;28;20187;-65
2020/12/30 03:17:47;;;;;;;16.10;8.87;;;3.30;99.90;;;;;;5052708;28;20185;-65
2020/12/30 03:20:13;;;;;;;12.47;7.97;;;3.20;99.90;;;;;;5053162;28;20592;-65
2020/12/30 03:22:39;;;;;;;13.03;8.80;;;3.20;99.90;;;;;;5053321;28;20181;-66
2020/12/30 03:25:04;;;;;;;14.47;8.90;;;3.20;99.90;;;;;;5052874;28;20361;-66
2020/12/30 03:27:30;;;;;;;13.63;8.63;;;3.20;99.90;;;;;;5053901;28;20179;-66
2020/12/30 03:29:56;;;;;;;13.43;8.90;;;3.20;99.90;;;;;;5052881;28;20683;-66
2020/12/30 03:32:21;;;;;;;13.07;9.03;;;3.20;99.90;;;;;;5053494;28;20609;-65
2020/12/30 03:34:47;;;;;;;13.10;8.97;;;3.10;99.90;;;;;;5055477;28;20194;-66
2020/12/30 03:37:12;;;;;;;13.97;9.30;;;3.20;99.90;;;;;;5053073;28;20182;-66
2020/12/30 03:39:38;;;;;;;18.43;10.00;;;3.20;99.90;;;;;;5052754;28;20179;-65
2020/12/30 03:42:06;;;;;;;17.90;11.73;;;3.10;99.90;;;;;;5052273;28;20189;-66
2020/12/30 03:44:32;;;;;;;18.43;13.40;;;3.10;99.90;;;;;;5053069;28;20210;-65
2020/12/30 03:46:58;;;;;;;23.77;15.33;;;3.00;99.90;;;;;;5052454;28;20589;-65
2020/12/30 03:49:24;;;;;;;26.93;17.63;;;3.00;99.90;;;;;;5052656;28;20198;-65
2020/12/30 03:51:49;;;;;;;32.07;20.97;;;2.90;99.90;;;;;;5051799;28;20630;-65
2020/12/30 03:54:15;;;;;;;22.97;15.40;;;2.90;99.90;;;;;;5052660;28;20317;-64
2020/12/30 03:56:41;;;;;;;23.53;13.13;;;2.70;99.90;;;;;;5052171;28;20193;-65
2020/12/30 03:59:06;;;;;;;24.37;14.77;;;2.60;99.90;;;;;;5052684;28;20177;-65
2020/12/30 04:01:32;;;;;;;19.10;12.50;;;2.50;99.90;;;;;;5051703;28;20181;-65
2020/12/30 04:03:57;;;;;;;15.63;9.27;;;2.40;99.90;;;;;;5052289;28;20560;-65
2020/12/30 04:06:23;;;;;;;14.07;9.30;;;2.20;99.90;;;;;;5033978;28;20186;-65
2020/12/30 04:08:48;;;;;;;32.43;20.37;;;2.20;99.90;;;;;;5051928;28;20209;-64
2020/12/30 04:11:14;;;;;;;21.93;14.63;;;2.10;99.90;;;;;;5051305;28;20265;-64
2020/12/30 04:13:39;;;;;;;24.80;14.13;;;2.00;99.90;;;;;;5051796;28;20692;-65
2020/12/30 04:16:05;;;;;;;16.37;10.70;;;1.80;99.90;;;;;;5050990;28;20177;-64
2020/12/30 04:18:31;;;;;;;20.47;11.93;;;1.70;99.90;;;;;;5041699;28;20190;-65
2020/12/30 04:20:56;;;;;;;14.40;10.00;;;1.70;99.90;;;;;;5051546;28;20174;-65
2020/12/30 04:23:22;;;;;;;23.57;11.77;;;1.70;99.90;;;;;;5051748;28;20195;-65
2020/12/30 04:25:48;;;;;;;16.20;10.03;;;1.60;99.90;;;;;;5051999;28;20266;-66
2020/12/30 04:28:17;;;;;;;20.50;11.13;;;1.60;99.90;;;;;;5053445;28;20679;-66
2020/12/30 04:30:42;;;;;;;16.73;10.37;;;1.60;99.90;;;;;;5050770;28;20563;-66
2020/12/30 04:33:11;;;;;;;21.07;11.43;;;1.50;99.90;;;;;;5051636;28;20175;-66
2020/12/30 04:35:36;;;;;;;19.20;10.30;;;1.50;99.90;;;;;;5052160;28;20491;-66
2020/12/30 04:38:04;;;;;;;19.20;11.50;;;1.50;99.90;;;;;;5052231;28;20175;-66
2020/12/30 04:40:30;;;;;;;18.27;10.10;;;1.50;99.90;;;;;;5052353;28;20201;-65
2020/12/30 04:43:00;;;;;;;26.47;15.53;;;1.50;99.90;;;;;;5050675;28;20183;-66
2020/12/30 04:45:26;;;;;;;26.73;14.20;;;1.50;99.90;;;;;;5114531;22;20673;-65
2020/12/30 04:47:54;;;;;;;18.73;11.77;;;1.50;99.90;;;;;;5031240;28;20245;-65
2020/12/30 04:50:22;;;;;;;18.20;11.20;;;1.50;99.90;;;;;;5030804;28;20217;-65
2020/12/30 04:52:48;;;;;;;18.13;12.03;;;1.40;99.90;;;;;;5030553;28;20262;-64
2020/12/30 04:55:16;;;;;;;21.57;11.27;;;1.40;99.90;;;;;;5030895;28;20201;-64
2020/12/30 04:57:57;;;;;;;19.77;10.77;;;1.40;99.90;;;;;;5029977;28;20182;-65
2020/12/30 05:00:25;;;;;;;21.17;11.20;;;1.40;99.90;;;;;;5030434;28;20671;-65
2020/12/30 05:02:52;;;;;;;17.43;11.03;;;1.40;99.90;;;;;;5031117;28;20247;-65
2020/12/30 05:05:19;;;;;;;17.63;10.93;;;1.40;99.90;;;;;;5031117;28;20203;-64
2020/12/30 05:07:45;;;;;;;19.97;11.87;;;1.30;99.90;;;;;;5030903;28;20225;-65
2020/12/30 05:10:15;;;;;;;22.93;10.87;;;1.30;99.90;;;;;;5030617;28;20222;-65
2020/12/30 05:12:41;;;;;;;18.13;11.63;;;1.40;99.90;;;;;;5030659;28;20183;-65
2020/12/30 05:15:06;;;;;;;21.47;11.60;;;1.40;99.90;;;;;;5031108;28;20665;-65
2020/12/30 05:17:34;;;;;;;21.07;11.57;;;1.40;99.90;;;;;;5030905;28;20276;-64
2020/12/30 05:19:59;;;;;;;19.60;11.53;;;1.30;99.90;;;;;;5030451;28;20192;-65
2020/12/30 05:22:25;;;;;;;19.13;11.67;;;1.30;99.90;;;;;;5031202;28;20179;-64
2020/12/30 05:24:51;;;;;;;19.60;11.40;;;1.30;99.90;;;;;;5030901;28;20191;-65
2020/12/30 05:27:18;;;;;;;21.27;12.57;;;1.30;99.90;;;;;;5032172;28;20179;-65
2020/12/30 05:29:50;;;;;;;21.97;11.83;;;1.30;99.90;;;;;;5034690;28;20210;-65
2020/12/30 05:32:19;;;;;;;19.47;12.20;;;1.30;99.90;;;;;;5033320;28;20258;-65
2020/12/30 05:34:45;;;;;;;20.17;11.77;;;1.40;99.90;;;;;;5034947;28;20285;-64
2020/12/30 05:37:13;;;;;;;23.57;11.10;;;1.30;99.90;;;;;;5034396;28;20514;-64
2020/12/30 05:39:39;;;;;;;19.97;11.27;;;1.30;99.90;;;;;;5014919;28;20203;-64
2020/12/30 05:42:23;;;;;;;21.10;11.70;;;1.40;99.90;;;;;;5031994;28;20265;-64
2020/12/30 05:44:50;;;;;;;27.40;12.43;;;1.30;99.90;;;;;;5034388;28;20297;-64
2020/12/30 05:47:25;;;;;;;22.17;11.90;;;1.30;99.90;;;;;;5033815;28;20637;-64
2020/12/30 05:49:52;;;;;;;22.10;11.80;;;1.20;99.90;;;;;;5034298;28;20203;-64
2020/12/30 05:52:27;;;;;;;21.43;12.00;;;1.20;99.90;;;;;;5033803;28;20179;-64
2020/12/30 05:54:57;;;;;;;20.77;11.27;;;1.10;99.90;;;;;;5034623;28;20329;-64
2020/12/30 05:57:35;;;;;;;22.97;13.13;;;1.00;99.90;;;;;;5033803;28;20262;-65
2020/12/30 06:00:10;;;;;;;21.70;12.33;;;1.00;99.90;;;;;;5034685;28;20534;-65
2020/12/30 06:02:41;;;;;;;24.53;11.80;;;1.00;99.90;;;;;;5033232;28;20179;-66
2020/12/30 06:05:18;;;;;;;22.00;12.37;;;0.90;99.90;;;;;;5035108;28;20203;-65
2020/12/30 06:07:49;;;;;;;23.27;11.60;;;0.80;99.90;;;;;;5035731;28;20257;-65
2020/12/30 06:10:16;;;;;;;25.03;12.70;;;0.90;99.90;;;;;;5034288;28;20215;-66
2020/12/30 06:12:48;;;;;;;27.13;13.13;;;0.80;99.90;;;;;;5033792;28;20186;-65
2020/12/30 06:15:24;;;;;;;28.67;12.67;;;0.80;99.90;;;;;;5033833;28;20245;-65
2020/12/30 06:17:50;;;;;;;29.80;13.40;;;0.80;99.90;;;;;;5033762;28;20190;-62
2020/12/30 06:20:25;;;;;;;30.07;14.83;;;0.90;99.90;;;;;;5033568;28;20172;-65
2020/12/30 06:22:54;;;;;;;32.90;14.17;;;0.90;99.90;;;;;;5033788;28;20514;-65
2020/12/30 06:25:22;;;;;;;37.00;14.50;;;1.00;99.90;;;;;;5033823;28;20195;-65
2020/12/30 06:27:49;;;;;;;41.87;14.97;;;1.00;99.90;;;;;;5033326;28;20179;-65
2020/12/30 06:30:15;;;;;;;32.43;15.97;;;1.00;99.90;;;;;;5033587;28;20199;-65
2020/12/30 06:32:41;;;;;;;34.00;15.27;;;1.10;99.90;;;;;;5033506;28;20198;-64
2020/12/30 06:35:06;;;;;;;45.20;16.40;;;1.10;99.90;;;;;;5033377;28;20191;-65
2020/12/30 06:37:34;;;;;;;38.73;16.20;;;1.10;99.90;;;;;;5033187;28;20175;-64
2020/12/30 06:40:18;;;;;;;41.83;18.07;;;1.10;99.90;;;;;;5033151;28;20188;-64
2020/12/30 06:42:49;;;;;;;41.47;16.23;;;1.20;99.90;;;;;;5033400;28;20188;-64
2020/12/30 06:45:35;;;;;;;48.73;19.00;;;1.20;99.90;;;;;;5013824;28;20620;-65
2020/12/30 06:48:00;;;;;;;44.00;18.60;;;1.30;99.90;;;;;;5031696;28;20185;-65
2020/12/30 06:50:27;;;;;;;49.87;19.67;;;1.30;99.90;;;;;;5033168;28;20171;-64
2020/12/30 06:52:53;;;;;;;50.47;20.83;;;1.30;99.90;;;;;;5032949;28;20644;-64
2020/12/30 06:55:44;;;;;;;49.97;20.37;;;1.40;99.90;;;;;;5033412;28;20215;-65
2020/12/30 06:58:30;;;;;;;48.53;20.13;;;1.40;99.90;;;;;;5033192;28;20246;-65
2020/12/30 07:00:58;;;;;;;53.90;21.40;;;1.40;99.90;;;;;;5025293;28;20198;-65
2020/12/30 07:03:30;;;;;;;48.30;19.97;;;1.50;99.90;;;;;;5031420;28;20181;-65
2020/12/30 07:06:22;;;;;;;48.57;20.90;;;1.50;99.90;;;;;;5025803;28;20668;-64
2020/12/30 07:08:48;;;;;;;37.93;18.30;;;1.60;99.90;;;;;;5023037;28;20606;-65
2020/12/30 07:11:36;;;;;;;44.77;19.67;;;1.60;99.90;;;;;;5031672;28;20183;-65
2020/12/30 07:14:15;;;;;;;45.73;20.27;;;1.70;99.90;;;;;;5032674;28;20238;-65
2020/12/30 07:16:44;;;;;;;56.90;21.73;;;1.70;99.90;;;;;;5032746;28;20274;-65
2020/12/30 07:19:12;;;;;;;49.77;19.50;;;1.70;99.90;;;;;;5032673;28;20246;-65
2020/12/30 07:21:52;;;;;;;50.63;21.57;;;1.80;99.90;;;;;;5032178;28;20183;-65
2020/12/30 07:24:31;;;;;;;49.63;19.77;;;1.90;99.90;;;;;;5032739;28;20237;-65
2020/12/30 07:27:04;;;;;;;47.57;20.30;;;2.00;99.90;;;;;;5032082;28;20183;-65
2020/12/30 07:29:30;;;;;;;44.00;18.63;;;2.00;99.90;;;;;;5032542;28;20203;-64
2020/12/30 07:31:59;;;;;;;48.77;19.87;;;2.10;99.90;;;;;;5031982;28;20841;-65
2020/12/30 07:34:30;;;;;;;43.57;19.77;;;2.10;99.90;;;;;;5032402;28;20183;-65
2020/12/30 07:36:55;;;;;;;48.43;20.77;;;2.20;99.90;;;;;;5031841;28;20180;-65
2020/12/30 07:39:38;;;;;;;52.30;20.13;;;2.20;99.90;;;;;;5032171;28;20210;-65
2020/12/30 07:42:05;;;;;;;45.10;19.20;;;2.20;99.90;;;;;;5032236;28;20481;-65
2020/12/30 07:44:30;;;;;;;53.27;21.63;;;2.30;99.90;;;;;;5031751;28;20217;-65
2020/12/30 07:47:04;;;;;;;55.50;21.10;;;2.30;99.90;;;;;;5030837;28;20184;-64
2020/12/30 07:49:30;;;;;;;57.33;21.47;;;2.20;99.90;;;;;;5030355;28;20199;-64
2020/12/30 07:51:57;;;;;;;48.70;19.63;;;2.20;99.90;;;;;;5031629;28;20174;-64
2020/12/30 07:54:24;;;;;;;43.63;19.87;;;2.20;99.90;;;;;;5031762;28;20191;-64
2020/12/30 07:56:51;;;;;;;43.67;19.00;;;2.10;99.90;;;;;;5031793;28;20171;-66
2020/12/30 07:59:24;;;;;;;43.40;20.57;;;2.20;99.90;;;;;;5031749;28;20200;-65
2020/12/30 08:02:04;;;;;;;45.43;18.43;;;2.10;99.90;;;;;;5031689;28;20176;-65
2020/12/30 08:04:35;;;;;;;37.23;19.20;;;2.30;99.90;;;;;;5031521;28;20765;-65
2020/12/30 08:07:06;;;;;;;35.03;17.83;;;2.30;99.90;;;;;;5031400;28;20224;-65
2020/12/30 08:09:34;;;;;;;45.00;20.03;;;2.40;99.90;;;;;;5019373;28;20294;-66
2020/12/30 08:12:03;;;;;;;37.13;18.10;;;2.30;99.90;;;;;;5031432;28;20700;-66
2020/12/30 08:14:29;;;;;;;48.73;20.73;;;2.50;99.90;;;;;;5031254;28;20684;-65
2020/12/30 08:17:00;;;;;;;45.33;23.10;;;2.50;99.90;;;;;;5031603;28;20167;-65
2020/12/30 08:19:33;;;;;;;41.57;21.83;;;2.50;99.90;;;;;;5031303;28;20250;-66
2020/12/30 08:22:19;;;;;;;57.10;28.37;;;2.50;99.90;;;;;;5031009;28;20743;-65
2020/12/30 08:24:45;;;;;;;54.57;24.30;;;2.50;99.90;;;;;;5015392;28;20249;-66
2020/12/30 08:27:14;;;;;;;57.50;25.73;;;2.50;99.90;;;;;;5031384;28;20171;-65
2020/12/30 08:29:42;;;;;;;47.87;22.97;;;2.50;99.90;;;;;;5031305;28;20207;-65
2020/12/30 08:32:32;;;;;;;39.83;18.17;;;2.50;99.90;;;;;;5031250;28;20255;-65
2020/12/30 08:35:13;;;;;;;30.63;15.57;;;2.50;99.90;;;;;;5011390;28;20204;-65
2020/12/30 08:37:42;;;;;;;29.77;15.90;;;2.60;99.90;;;;;;5021667;28;20199;-66
2020/12/30 08:40:17;;;;;;;36.70;16.40;;;2.70;99.90;;;;;;5031192;28;20254;-66
2020/12/30 08:42:51;;;;;;;36.13;19.73;;;2.90;99.90;;;;;;5031205;28;20620;-65
2020/12/30 08:45:28;;;;;;;35.77;18.63;;;3.10;99.90;;;;;;5031478;28;20206;-65
2020/12/30 08:47:56;;;;;;;37.00;19.00;;;3.20;99.90;;;;;;5030899;28;20485;-65
2020/12/30 08:50:24;;;;;;;36.43;19.20;;;3.40;99.90;;;;;;5022349;28;20199;-65
2020/12/30 08:52:50;;;;;;;34.50;17.93;;;3.50;99.90;;;;;;5011204;28;20184;-64
2020/12/30 08:55:16;;;;;;;33.63;18.87;;;3.60;99.90;;;;;;5019893;28;20191;-65
2020/12/30 08:57:43;;;;;;;40.77;18.83;;;3.60;99.90;;;;;;5031143;28;20179;-64
2020/12/30 09:00:15;;;;;;;43.80;20.70;;;3.60;99.90;;;;;;5030934;28;20286;-65
2020/12/30 09:02:42;;;;;;;41.40;19.53;;;3.60;99.90;;;;;;5035098;28;20183;-65
2020/12/30 09:05:07;;;;;;;36.90;19.67;;;3.60;99.90;;;;;;5033438;28;20199;-65
2020/12/30 09:07:33;;;;;;;42.30;18.77;;;3.60;99.90;;;;;;5035158;28;20228;-65
2020/12/30 09:10:00;;;;;;;39.77;17.97;;;3.70;99.90;;;;;;5034602;28;20214;-65
2020/12/30 09:12:26;;;;;;;43.23;21.83;;;3.70;99.90;;;;;;5035155;28;20172;-65
2020/12/30 09:14:51;;;;;;;40.90;21.77;;;3.70;99.90;;;;;;5034273;28;20207;-65
2020/12/30 09:17:17;;;;;;;41.77;20.87;;;3.70;99.90;;;;;;5034840;28;20171;-65
2020/12/30 09:19:42;;;;;;;33.63;17.83;;;3.70;99.90;;;;;;5034397;28;20179;-65
2020/12/30 09:22:09;;;;;;;36.00;18.87;;;3.70;99.90;;;;;;5034692;28;20182;-65
2020/12/30 09:24:40;;;;;;;37.43;19.70;;;3.80;99.90;;;;;;5034846;28;20254;-65
2020/12/30 09:27:20;;;;;;;40.03;19.87;;;3.80;99.90;;;;;;5033728;28;20192;-66
2020/12/30 09:30:06;;;;;;;41.03;19.67;;;3.90;99.90;;;;;;5034911;28;20218;-65
2020/12/30 09:32:31;;;;;;;33.07;18.50;;;4.00;99.90;;;;;;5033536;28;20254;-65
2020/12/30 09:35:02;;;;;;;32.87;17.20;;;4.00;99.90;;;;;;5035869;28;20329;-65
2020/12/30 09:37:28;;;;;;;35.50;18.83;;;4.10;99.90;;;;;;5034841;28;20171;-65
2020/12/30 09:40:11;;;;;;;31.00;18.23;;;4.20;99.90;;;;;;5033864;28;20503;-63
2020/12/30 09:42:37;;;;;;;26.43;15.47;;;4.20;99.90;;;;;;5034638;28;20234;-66
2020/12/30 09:45:06;;;;;;;23.50;14.30;;;4.20;99.90;;;;;;5033942;28;20219;-65
2020/12/30 09:47:32;;;;;;;23.63;13.63;;;4.30;99.90;;;;;;5034523;28;20637;-65
2020/12/30 09:49:57;;;;;;;18.07;12.77;;;4.30;99.90;;;;;;5032755;28;20294;-66
2020/12/30 09:52:23;;;;;;;18.47;12.33;;;4.30;99.90;;;;;;5034375;28;20546;-65
2020/12/30 09:54:48;;;;;;;17.73;11.97;;;4.30;99.90;;;;;;5034760;28;20613;-66
2020/12/30 09:57:14;;;;;;;18.17;12.27;;;4.30;99.90;;;;;;5038870;28;20517;-65
2020/12/30 09:59:40;;;;;;;23.07;12.53;;;4.40;99.90;;;;;;5035214;28;20183;-65
2020/12/30 10:02:05;;;;;;;16.20;11.57;;;4.40;99.90;;;;;;5033725;28;20176;-65
2020/12/30 10:04:31;;;;;;;20.30;12.23;;;4.40;99.90;;;;;;5033844;28;20214;-66
2020/12/30 10:06:57;;;;;;;19.30;11.63;;;4.50;99.90;;;;;;5033691;28;20172;-65
2020/12/30 10:09:22;;;;;;;18.73;11.20;;;4.60;99.90;;;;;;5022916;28;20199;-65
2020/12/30 10:11:51;;;;;;;19.80;11.47;;;4.80;99.90;;;;;;5013732;28;20711;-66
2020/12/30 10:14:16;;;;;;;15.27;10.57;;;4.90;99.90;;;;;;5026265;28;20196;-65
2020/12/30 10:16:42;;;;;;;13.30;9.83;;;5.00;99.90;;;;;;5034049;28;20186;-65
2020/12/30 10:19:07;;;;;;;12.77;9.53;;;5.10;99.90;;;;;;5033694;28;20358;-66
2020/12/30 10:21:33;;;;;;;15.50;9.60;;;5.10;99.90;;;;;;5032600;28;20190;-65
2020/12/30 10:23:59;;;;;;;12.77;9.13;;;5.30;99.90;;;;;;5033539;28;20258;-65
2020/12/30 10:26:25;;;;;;;13.33;9.27;;;5.50;99.90;;;;;;5033619;28;20637;-65
2020/12/30 10:28:50;;;;;;;12.33;8.90;;;5.70;99.90;;;;;;5033483;28;20198;-64
2020/12/30 10:31:16;;;;;;;15.90;10.13;;;5.90;99.90;;;;;;5033249;28;20171;-66
2020/12/30 10:33:42;;;;;;;12.77;9.90;;;5.90;99.90;;;;;;5033392;28;20249;-66
2020/12/30 10:36:08;;;;;;;17.90;9.70;;;5.90;99.90;;;;;;5033214;28;20646;-65
2020/12/30 10:38:34;;;;;;;14.07;9.60;;;5.90;99.90;;;;;;5033494;28;20179;-66
2020/12/30 10:41:00;;;;;;;13.20;8.50;;;6.00;99.90;;;;;;5032678;28;20661;-65
2020/12/30 10:43:26;;;;;;;13.10;9.30;;;6.10;99.90;;;;;;5033403;28;20180;-65
2020/12/30 10:45:51;;;;;;;12.80;8.57;;;6.10;99.90;;;;;;5074772;22;20305;-64
2020/12/30 10:48:17;;;;;;;14.00;9.73;;;6.10;99.90;;;;;;5053180;28;20254;-64
2020/12/30 10:50:43;;;;;;;13.83;8.77;;;6.00;99.90;;;;;;5051019;28;20182;-65
2020/12/30 10:53:08;;;;;;;11.70;8.37;;;5.90;99.90;;;;;;5052841;28;20668;-63
2020/12/30 10:55:34;;;;;;;13.13;8.90;;;5.80;99.90;;;;;;5052713;28;20660;-64
2020/12/30 10:58:00;;;;;;;14.40;9.80;;;5.80;99.90;;;;;;5052617;28;20632;-63
2020/12/30 11:00:25;;;;;;;17.80;10.20;;;5.80;99.90;;;;;;5052573;28;20183;-65
2020/12/30 11:02:51;;;;;;;14.27;9.00;;;5.90;99.90;;;;;;5052402;28;20171;-63
2020/12/30 11:05:17;;;;;;;15.07;10.13;;;6.10;99.90;;;;;;5052379;28;20195;-65
2020/12/30 11:07:42;;;;;;;14.60;10.00;;;6.40;99.90;;;;;;5052550;28;20175;-64
2020/12/30 11:10:09;;;;;;;13.60;9.97;;;6.60;99.90;;;;;;5052429;28;20611;-65
2020/12/30 11:12:36;;;;;;;21.53;11.57;;;6.50;99.90;;;;;;5053266;28;20175;-63
2020/12/30 11:15:03;;;;;;;16.10;11.00;;;6.50;99.90;;;;;;5051924;28;20187;-64
2020/12/30 11:17:29;;;;;;;16.23;10.20;;;6.50;99.90;;;;;;5052423;28;20546;-64
2020/12/30 11:19:55;;;;;;;16.80;9.70;;;6.50;99.90;;;;;;5052217;28;20171;-63
2020/12/30 11:22:21;;;;;;;20.03;11.53;;;6.50;99.90;;;;;;5052627;28;20654;-63
2020/12/30 11:24:46;;;;;;;18.90;11.77;;;6.50;99.90;;;;;;5052006;28;20694;-64
2020/12/30 11:27:12;;;;;;;18.60;10.13;;;6.60;99.90;;;;;;5052289;28;20179;-63
2020/12/30 11:29:37;;;;;;;15.13;10.00;;;6.60;99.90;;;;;;5052040;28;20211;-63
2020/12/30 11:32:03;;;;;;;12.83;9.77;;;6.50;99.90;;;;;;5051970;28;20175;-64
2020/12/30 11:34:29;;;;;;;15.03;10.53;;;6.50;99.90;;;;;;5052287;28;20587;-63
2020/12/30 11:36:54;;;;;;;13.60;10.17;;;6.50;99.90;;;;;;5052013;28;20171;-65
2020/12/30 11:39:20;;;;;;;13.57;10.53;;;6.60;99.90;;;;;;5051844;28;20262;-63
2020/12/30 11:41:50;;;;;;;14.93;9.10;;;6.70;99.90;;;;;;5051766;28;20177;-63
2020/12/30 11:44:16;;;;;;;12.30;8.93;;;6.80;99.90;;;;;;5051657;28;20220;-64
2020/12/30 11:46:42;;;;;;;12.10;8.60;;;7.00;99.90;;;;;;5051720;28;20179;-64
2020/12/30 11:49:08;;;;;;;16.60;9.87;;;7.10;99.90;;;;;;5051814;28;20648;-63
2020/12/30 11:51:39;;;;;;;14.13;8.50;;;7.10;99.90;;;;;;5051779;28;20683;-61
2020/12/30 11:54:05;;;;;;;12.83;9.03;;;7.10;99.90;;;;;;5050606;28;20281;-63
2020/12/30 11:56:31;;;;;;;14.50;9.13;;;7.10;99.90;;;;;;5051705;28;20718;-65
2020/12/30 11:58:57;;;;;;;12.33;9.17;;;7.10;99.90;;;;;;5050657;28;20522;-64
2020/12/30 12:01:22;;;;;;;13.57;9.33;;;7.30;99.90;;;;;;5051410;28;20636;-64
2020/12/30 12:03:48;;;;;;;13.80;10.00;;;7.30;99.90;;;;;;5048986;28;20179;-65
2020/12/30 12:06:13;;;;;;;12.73;8.73;;;7.60;99.90;;;;;;5050424;28;20185;-65
2020/12/30 12:08:40;;;;;;;14.07;9.53;;;8.00;99.90;;;;;;5050200;28;20198;-64
2020/12/30 12:11:06;;;;;;;12.90;8.07;;;8.40;99.90;;;;;;5051017;28;20615;-64
2020/12/30 12:13:32;;;;;;;10.30;8.17;;;8.60;99.90;;;;;;5051619;28;20546;-63
2020/12/30 12:15:57;;;;;;;9.97;6.93;;;8.70;99.90;;;;;;5051379;28;20207;-64
2020/12/30 12:18:23;;;;;;;11.90;8.50;;;8.60;99.90;;;;;;5051623;28;20167;-63
2020/12/30 12:20:49;;;;;;;14.30;8.73;;;8.40;99.90;;;;;;5050582;28;20183;-64
2020/12/30 12:23:14;;;;;;;13.60;8.90;;;8.10;99.90;;;;;;5051347;28;20163;-65
2020/12/30 12:25:43;;;;;;;14.00;8.90;;;7.80;99.90;;;;;;5050226;28;20191;-64
2020/12/30 12:28:09;;;;;;;12.77;8.70;;;8.10;99.90;;;;;;5051264;28;20166;-64
2020/12/30 12:30:35;;;;;;;13.57;8.60;;;8.30;99.90;;;;;;5051024;28;20679;-63
2020/12/30 12:33:00;;;;;;;14.30;8.30;;;8.30;99.90;;;;;;5050955;28;20177;-64
2020/12/30 12:35:26;;;;;;;11.70;7.87;;;8.10;99.90;;;;;;5048789;28;20194;-64
2020/12/30 12:38:05;;;;;;;11.13;8.37;;;7.70;99.90;;;;;;5051024;28;20167;-63
2020/12/30 12:40:31;;;;;;;13.33;8.27;;;7.30;99.90;;;;;;5049855;28;20174;-63
2020/12/30 12:42:56;;;;;;;12.20;9.00;;;7.00;99.90;;;;;;5050694;28;20183;-64
2020/12/30 12:45:22;;;;;;;12.20;8.70;;;6.80;99.90;;;;;;5050814;28;20272;-64